Harkema, Netherlands
Current Conditions -  °F | °C
As of 5:42 AM on Tuesday 21 Oct 2014 (Local Time) from EHLW Reporting Station
Moderate Rain Moderate Rain  
Wind Chill: 55°   Ceiling: 3800
Heat Index: 55°   Visibility: 4mi
Dew Point: 54°   Wind: 10mph
Humidity: 94%   Direction: 200°SSW
Pressure: 29.68"   Gusts: NA
Location:  53.18°N, 6.13°E
Report Text: EHLW 210342Z AUTO 20009KT 7000 DZRA FEW011 SCT024 BKN038 13/12 Q1005 WHT
Loading
Personal Weather Stations






























Interactive Weather Map
Tropical Storm Tracking
New forecast layout! Learn more

10-Day Weather Forecast

Advertisements
Track Severe Weather on mobile